Time;durP1;ratioP1;P1;durP2;ratioP2;P2;SDS_P1;SDS_P2;PMS_P1;PMS_P2;Temp;Humidity;BMP_temperature;BMP_pressure;BME280_temperature;BME280_humidity;BME280_pressure;Samples;Min_cycle;Max_cycle;Signal;HPM_P1;HPM_P2
2021/12/11 00:01:24;;;;;;;17.45;8.43;;;;;;;;;;4989748;28;20041;-77
2021/12/11 00:03:54;;;;;;;16.23;8.50;;;;;;;;;;5017667;28;20072;-74
2021/12/11 00:06:26;;;;;;;40.55;13.38;;;;;;;;;;5006412;28;20026;-74
2021/12/11 00:08:54;;;;;;;17.15;8.20;;;;;;;;;;5002190;28;20015;-73
2021/12/11 00:11:25;;;;;;;37.85;14.50;;;;;;;;;;4999845;28;20038;-75
2021/12/11 00:13:57;;;;;;;33.10;15.60;;;;;;;;;;5005158;28;20031;-75
2021/12/11 00:16:25;;;;;;;34.90;15.77;;;;;;;;;;5009515;28;20034;-74
2021/12/11 00:18:55;;;;;;;38.10;15.48;;;;;;;;;;5000616;28;20023;-74
2021/12/11 00:21:23;;;;;;;34.33;17.52;;;;;;;;;;5019015;28;20488;-76
2021/12/11 00:24:05;;;;;;;34.97;14.68;;;;;;;;;;5009872;28;20050;-76
2021/12/11 00:26:33;;;;;;;37.47;14.93;;;;;;;;;;5014344;28;20550;-75
2021/12/11 00:28:59;;;;;;;42.58;17.40;;;;;;;;;;5016964;28;20408;-75
2021/12/11 00:31:27;;;;;;;56.20;21.88;;;;;;;;;;5012513;28;20030;-75
2021/12/11 00:33:54;;;;;;;24.63;11.60;;;;;;;;;;5008833;28;20037;-77
2021/12/11 00:36:23;;;;;;;58.50;24.85;;;;;;;;;;5024025;28;20559;-75
2021/12/11 00:38:50;;;;;;;39.83;17.25;;;;;;;;;;5003058;28;20133;-74
2021/12/11 00:41:18;;;;;;;43.42;17.98;;;;;;;;;;5013275;28;20131;-76
2021/12/11 00:43:45;;;;;;;19.40;8.13;;;;;;;;;;4999385;28;20109;-76
2021/12/11 00:46:13;;;;;;;35.30;13.35;;;;;;;;;;5009667;28;20503;-74
2021/12/11 00:48:40;;;;;;;44.67;17.92;;;;;;;;;;5017196;28;20084;-75
2021/12/11 00:51:08;;;;;;;28.90;12.98;;;;;;;;;;5014207;28;20042;-76
2021/12/11 00:53:36;;;;;;;36.55;16.00;;;;;;;;;;5005681;28;20049;-76
2021/12/11 00:56:07;;;;;;;29.38;12.23;;;;;;;;;;5017153;28;20503;-74
2021/12/11 00:58:35;;;;;;;27.55;10.82;;;;;;;;;;5002082;28;20034;-75
2021/12/11 01:01:07;;;;;;;16.65;7.45;;;;;;;;;;5015141;28;20092;-76
2021/12/11 01:03:53;;;;;;;23.30;8.52;;;;;;;;;;5016087;28;20034;-74
2021/12/11 01:06:22;;;;;;;27.80;12.77;;;;;;;;;;5005474;28;20125;-77
2021/12/11 01:08:54;;;;;;;19.08;9.07;;;;;;;;;;5007722;28;20026;-78
2021/12/11 01:11:26;;;;;;;27.98;11.02;;;;;;;;;;5000370;28;20392;-74
2021/12/11 01:14:04;;;;;;;54.17;23.52;;;;;;;;;;5006555;28;20539;-74
2021/12/11 01:16:30;;;;;;;73.93;33.60;;;;;;;;;;5012080;28;20519;-75
2021/12/11 01:18:58;;;;;;;46.42;20.95;;;;;;;;;;4999803;28;20118;-74
2021/12/11 01:24:13;;;;;;;22.88;9.23;;;;;;;;;;5007348;28;20053;-75
2021/12/11 01:26:42;;;;;;;37.58;15.55;;;;;;;;;;5015511;28;20061;-76
2021/12/11 01:29:09;;;;;;;18.90;9.45;;;;;;;;;;4984391;28;20036;-76
2021/12/11 01:31:35;;;;;;;31.67;11.85;;;;;;;;;;5015982;28;20040;-74
2021/12/11 01:34:02;;;;;;;14.05;6.97;;;;;;;;;;5015338;28;20451;-75
2021/12/11 01:36:29;;;;;;;18.30;6.70;;;;;;;;;;5001228;28;20034;-75
2021/12/11 01:38:56;;;;;;;15.55;5.03;;;;;;;;;;5013938;28;20092;-75
2021/12/11 01:41:23;;;;;;;23.42;6.57;;;;;;;;;;5002344;28;20030;-74
2021/12/11 01:43:51;;;;;;;16.52;7.13;;;;;;;;;;5006769;28;20019;-77
2021/12/11 01:46:19;;;;;;;18.10;6.43;;;;;;;;;;5008816;28;20030;-75
2021/12/11 01:48:48;;;;;;;25.05;7.70;;;;;;;;;;5007981;28;20030;-77
2021/12/11 01:51:20;;;;;;;15.40;7.55;;;;;;;;;;5014790;28;20044;-73
2021/12/11 01:53:48;;;;;;;12.80;4.93;;;;;;;;;;5009487;28;20022;-75
2021/12/11 01:56:19;;;;;;;10.00;4.53;;;;;;;;;;5001666;28;20400;-76
2021/12/11 01:58:47;;;;;;;10.65;5.68;;;;;;;;;;5012135;28;20036;-73
2021/12/11 02:01:15;;;;;;;11.10;5.70;;;;;;;;;;5014245;28;20045;-76
2021/12/11 02:03:42;;;;;;;13.50;6.15;;;;;;;;;;5012924;28;20045;-77
2021/12/11 02:06:08;;;;;;;17.85;6.47;;;;;;;;;;5003418;28;20030;-75
2021/12/11 02:08:36;;;;;;;20.77;6.50;;;;;;;;;;5010426;28;20026;-76
2021/12/11 02:11:09;;;;;;;16.08;6.28;;;;;;;;;;5006976;28;20121;-76
2021/12/11 02:13:44;;;;;;;11.85;5.28;;;;;;;;;;4997168;28;20050;-77
2021/12/11 02:16:19;;;;;;;20.17;5.88;;;;;;;;;;5013167;28;20384;-75
2021/12/11 02:18:46;;;;;;;27.63;6.20;;;;;;;;;;5014145;28;20052;-75
2021/12/11 02:21:18;;;;;;;11.57;4.43;;;;;;;;;;4999422;28;20287;-73
2021/12/11 02:23:44;;;;;;;17.50;6.45;;;;;;;;;;5009661;28;21418;-72
2021/12/11 02:26:13;;;;;;;13.40;5.22;;;;;;;;;;4994844;28;20478;-75
2021/12/11 02:28:51;;;;;;;15.80;4.47;;;;;;;;;;5010389;28;20026;-77
2021/12/11 02:31:29;;;;;;;14.52;4.68;;;;;;;;;;4981278;28;20026;-75
2021/12/11 02:34:15;;;;;;;13.57;4.78;;;;;;;;;;5004253;28;20087;-75
2021/12/11 02:36:47;;;;;;;14.25;4.90;;;;;;;;;;5006160;28;20045;-76
2021/12/11 02:39:20;;;;;;;19.42;5.28;;;;;;;;;;4984444;28;20104;-75
2021/12/11 02:41:52;;;;;;;13.77;5.10;;;;;;;;;;5004010;28;20397;-75
2021/12/11 02:44:31;;;;;;;14.35;4.38;;;;;;;;;;5006362;28;20492;-76
2021/12/11 02:47:00;;;;;;;11.80;4.68;;;;;;;;;;4997784;28;20105;-73
2021/12/11 02:49:29;;;;;;;14.95;5.45;;;;;;;;;;5010338;28;20057;-75
2021/12/11 02:52:05;;;;;;;16.80;6.15;;;;;;;;;;5004391;28;20054;-75
2021/12/11 02:54:34;;;;;;;11.05;5.57;;;;;;;;;;4995996;28;20026;-75
2021/12/11 02:57:06;;;;;;;9.88;5.03;;;;;;;;;;5002566;28;20507;-75
2021/12/11 02:59:39;;;;;;;16.27;5.15;;;;;;;;;;5002658;28;20026;-76
2021/12/11 03:02:11;;;;;;;11.43;4.13;;;;;;;;;;4999422;28;20026;-75
2021/12/11 03:04:44;;;;;;;13.23;4.53;;;;;;;;;;5009441;28;20033;-74
2021/12/11 03:07:15;;;;;;;13.90;4.10;;;;;;;;;;4996939;28;20033;-76
2021/12/11 03:09:44;;;;;;;10.98;4.10;;;;;;;;;;5005720;28;20474;-75
2021/12/11 03:12:12;;;;;;;16.25;5.00;;;;;;;;;;5002776;28;20027;-73
2021/12/11 03:14:38;;;;;;;13.40;4.47;;;;;;;;;;4995348;28;20050;-75
2021/12/11 03:17:06;;;;;;;11.65;5.55;;;;;;;;;;5008320;28;20023;-75
2021/12/11 03:19:33;;;;;;;15.57;4.60;;;;;;;;;;4995475;28;20030;-75
2021/12/11 03:22:00;;;;;;;11.85;4.70;;;;;;;;;;5004486;28;20033;-75
2021/12/11 03:24:27;;;;;;;14.48;4.88;;;;;;;;;;5001789;28;20031;-74
2021/12/11 03:26:54;;;;;;;15.57;4.50;;;;;;;;;;5012578;28;20026;-76
2021/12/11 03:29:21;;;;;;;13.65;3.60;;;;;;;;;;5013420;28;20029;-74
2021/12/11 03:31:48;;;;;;;10.82;4.13;;;;;;;;;;5004405;28;20081;-75
2021/12/11 03:34:17;;;;;;;9.27;4.70;;;;;;;;;;5005659;28;20480;-78
2021/12/11 03:36:43;;;;;;;10.35;3.80;;;;;;;;;;5012461;28;20040;-75
2021/12/11 03:39:11;;;;;;;15.48;3.65;;;;;;;;;;5005436;28;20109;-74
2021/12/11 03:41:38;;;;;;;10.15;3.95;;;;;;;;;;5001010;28;20519;-75
2021/12/11 03:44:05;;;;;;;14.55;4.00;;;;;;;;;;5009972;28;20034;-75
2021/12/11 03:46:31;;;;;;;12.95;4.45;;;;;;;;;;5004431;28;20030;-75
2021/12/11 03:48:59;;;;;;;7.75;3.40;;;;;;;;;;5000609;28;20047;-75
2021/12/11 03:51:33;;;;;;;13.00;3.90;;;;;;;;;;5010861;28;20527;-76
2021/12/11 03:54:01;;;;;;;12.20;3.80;;;;;;;;;;5004446;28;20580;-75
2021/12/11 03:56:27;;;;;;;9.93;3.85;;;;;;;;;;5012416;28;20025;-76
2021/12/11 03:58:53;;;;;;;13.60;4.03;;;;;;;;;;5006095;28;20038;-75
2021/12/11 04:01:24;;;;;;;11.20;3.97;;;;;;;;;;5014504;28;20041;-74
2021/12/11 04:03:51;;;;;;;11.45;3.25;;;;;;;;;;5009412;28;20548;-75
2021/12/11 04:06:17;;;;;;;16.33;3.92;;;;;;;;;;5009601;28;20030;-75
2021/12/11 04:08:45;;;;;;;9.38;3.58;;;;;;;;;;4999735;28;20041;-75
2021/12/11 04:11:16;;;;;;;12.32;3.30;;;;;;;;;;4999097;28;20034;-74
2021/12/11 04:13:43;;;;;;;9.73;3.85;;;;;;;;;;5009369;28;20033;-75
2021/12/11 04:16:09;;;;;;;19.02;4.57;;;;;;;;;;4998264;28;20030;-76
2021/12/11 04:18:36;;;;;;;12.15;3.95;;;;;;;;;;5009088;28;20072;-75
2021/12/11 04:21:02;;;;;;;10.32;4.15;;;;;;;;;;4998976;28;20482;-77
2021/12/11 04:23:28;;;;;;;8.80;3.33;;;;;;;;;;5009249;28;20041;-73
2021/12/11 04:25:55;;;;;;;15.13;3.80;;;;;;;;;;5005870;28;20026;-76
2021/12/11 04:28:25;;;;;;;10.27;3.20;;;;;;;;;;5005986;28;20026;-75
2021/12/11 04:30:53;;;;;;;9.63;3.00;;;;;;;;;;5012072;28;20025;-76
2021/12/11 04:33:20;;;;;;;10.88;3.80;;;;;;;;;;5001151;28;20040;-74
2021/12/11 04:35:46;;;;;;;8.82;2.88;;;;;;;;;;5015064;28;20489;-76
2021/12/11 04:38:13;;;;;;;13.63;3.05;;;;;;;;;;5003500;28;20034;-76
2021/12/11 04:40:42;;;;;;;9.70;3.22;;;;;;;;;;4997891;28;20037;-75
2021/12/11 04:43:16;;;;;;;12.60;3.25;;;;;;;;;;5012071;28;20018;-75
2021/12/11 04:45:48;;;;;;;7.40;3.22;;;;;;;;;;5014898;28;20018;-75
2021/12/11 04:48:28;;;;;;;7.90;3.13;;;;;;;;;;5003153;28;20037;-73
2021/12/11 04:51:00;;;;;;;12.32;4.10;;;;;;;;;;4996129;28;20478;-74
2021/12/11 04:58:58;;;;;;;8.43;2.90;;;;;;;;;;4999834;28;20104;-75
2021/12/11 05:01:58;;;;;;;12.68;4.03;;;;;;;;;;5011787;28;20045;-75
2021/12/11 05:05:20;;;;;;;10.55;3.10;;;;;;;;;;5002587;28;20037;-75
2021/12/11 05:09:58;;;;;;;8.75;3.15;;;;;;;;;;4998118;28;20437;-75
2021/12/11 05:14:51;;;;;;;11.93;4.57;;;;;;;;;;4999829;28;20072;-76
2021/12/11 05:17:18;;;;;;;10.63;2.83;;;;;;;;;;5013899;28;20034;-77
2021/12/11 05:19:44;;;;;;;8.75;3.60;;;;;;;;;;5006263;28;20034;-77
2021/12/11 05:22:11;;;;;;;9.18;2.95;;;;;;;;;;4995384;28;20030;-76
2021/12/11 05:24:38;;;;;;;7.63;2.92;;;;;;;;;;5010972;28;20037;-76
2021/12/11 05:27:04;;;;;;;7.68;2.72;;;;;;;;;;5008679;28;20029;-75
2021/12/11 05:29:30;;;;;;;11.02;3.40;;;;;;;;;;5008153;28;20034;-76
2021/12/11 05:31:56;;;;;;;8.68;2.80;;;;;;;;;;5005316;28;20499;-76
2021/12/11 05:34:22;;;;;;;12.45;3.03;;;;;;;;;;5001234;28;20097;-75
2021/12/11 05:36:49;;;;;;;8.50;3.08;;;;;;;;;;5011224;28;20032;-76
2021/12/11 05:39:16;;;;;;;8.25;2.53;;;;;;;;;;4998221;28;20081;-76
2021/12/11 05:41:43;;;;;;;6.32;2.92;;;;;;;;;;5003223;28;20029;-74
2021/12/11 05:44:10;;;;;;;8.93;4.80;;;;;;;;;;5014998;28;20421;-75
2021/12/11 05:46:37;;;;;;;7.03;2.60;;;;;;;;;;4999218;28;20110;-75
2021/12/11 05:49:04;;;;;;;6.45;2.40;;;;;;;;;;4998043;28;20037;-75
2021/12/11 05:51:38;;;;;;;11.52;4.00;;;;;;;;;;5014106;28;20121;-75
2021/12/11 05:54:05;;;;;;;8.13;2.65;;;;;;;;;;5009139;28;20091;-74
2021/12/11 05:56:35;;;;;;;9.68;3.20;;;;;;;;;;5003574;28;20560;-74
2021/12/11 05:59:01;;;;;;;9.77;2.55;;;;;;;;;;5010943;28;20025;-75
2021/12/11 06:01:33;;;;;;;8.45;2.50;;;;;;;;;;5000881;28;20078;-74
2021/12/11 06:04:01;;;;;;;5.00;2.15;;;;;;;;;;4996265;28;20022;-75
2021/12/11 06:06:27;;;;;;;9.13;3.45;;;;;;;;;;5008572;28;20037;-75
2021/12/11 06:08:53;;;;;;;5.57;2.75;;;;;;;;;;4999663;28;20481;-74
2021/12/11 06:11:19;;;;;;;8.40;2.75;;;;;;;;;;4996247;28;20039;-76
2021/12/11 06:13:46;;;;;;;7.50;2.85;;;;;;;;;;5003243;28;20028;-76
2021/12/11 06:16:14;;;;;;;5.80;2.42;;;;;;;;;;5004466;28;20038;-75
2021/12/11 06:18:40;;;;;;;7.97;2.53;;;;;;;;;;4995937;28;20428;-75
2021/12/11 06:21:07;;;;;;;5.25;2.15;;;;;;;;;;4997688;28;20030;-74
2021/12/11 06:23:33;;;;;;;3.30;2.47;;;;;;;;;;5007260;28;20026;-73
2021/12/11 06:25:59;;;;;;;8.77;3.28;;;;;;;;;;5002098;28;20030;-77
2021/12/11 06:28:26;;;;;;;6.50;2.67;;;;;;;;;;5008335;28;20037;-76
2021/12/11 06:30:57;;;;;;;10.60;3.13;;;;;;;;;;4997122;28;20081;-75
2021/12/11 06:33:23;;;;;;;6.60;2.53;;;;;;;;;;5013545;28;20187;-75
2021/12/11 06:35:56;;;;;;;6.18;2.40;;;;;;;;;;4997993;28;20497;-75
2021/12/11 06:38:24;;;;;;;6.95;2.55;;;;;;;;;;5007598;28;20030;-76
2021/12/11 06:40:51;;;;;;;7.55;3.08;;;;;;;;;;5011564;28;20033;-76
2021/12/11 06:43:17;;;;;;;10.50;2.53;;;;;;;;;;5009292;28;20036;-75
2021/12/11 06:45:43;;;;;;;12.38;3.55;;;;;;;;;;5002347;28;20026;-73
2021/12/11 06:48:09;;;;;;;10.27;2.92;;;;;;;;;;5005537;28;20026;-75
2021/12/11 06:50:36;;;;;;;5.95;2.60;;;;;;;;;;4998443;28;20453;-78
2021/12/11 06:53:06;;;;;;;3.83;2.15;;;;;;;;;;5009292;28;20125;-76
2021/12/11 06:55:32;;;;;;;8.63;2.70;;;;;;;;;;4999722;28;20030;-75
2021/12/11 06:57:58;;;;;;;7.68;2.78;;;;;;;;;;5002368;28;20407;-75
2021/12/11 07:00:26;;;;;;;6.00;2.75;;;;;;;;;;5007043;28;20109;-77
2021/12/11 07:02:52;;;;;;;5.50;2.53;;;;;;;;;;4995949;28;20497;-76
2021/12/11 07:05:18;;;;;;;14.63;2.65;;;;;;;;;;4997734;28;20034;-76
2021/12/11 07:07:45;;;;;;;3.75;2.30;;;;;;;;;;5005566;28;20030;-76
2021/12/11 07:10:13;;;;;;;3.67;2.30;;;;;;;;;;4993546;28;20030;-76
2021/12/11 07:12:39;;;;;;;3.95;2.47;;;;;;;;;;4993347;28;20034;-76
2021/12/11 07:15:08;;;;;;;6.75;2.88;;;;;;;;;;4995819;28;20490;-77
2021/12/11 07:17:34;;;;;;;5.72;3.03;;;;;;;;;;4999033;28;20489;-76
2021/12/11 07:20:01;;;;;;;3.67;2.22;;;;;;;;;;4988043;28;20077;-75
2021/12/11 07:22:27;;;;;;;5.40;2.67;;;;;;;;;;4997184;28;20029;-76
2021/12/11 07:24:58;;;;;;;4.35;2.50;;;;;;;;;;4997447;28;20522;-77
2021/12/11 07:27:25;;;;;;;4.63;2.80;;;;;;;;;;5007140;28;20032;-76
2021/12/11 07:29:51;;;;;;;6.13;2.53;;;;;;;;;;5016484;28;20032;-76
2021/12/11 07:32:17;;;;;;;4.55;2.50;;;;;;;;;;4997929;28;20376;-76
2021/12/11 07:34:43;;;;;;;4.95;2.72;;;;;;;;;;4996909;28;20501;-76
2021/12/11 07:37:10;;;;;;;7.28;2.80;;;;;;;;;;4996333;28;20037;-76
2021/12/11 07:39:36;;;;;;;6.65;2.35;;;;;;;;;;4996800;28;20025;-77
2021/12/11 07:42:03;;;;;;;7.63;3.08;;;;;;;;;;4995648;28;20030;-76
2021/12/11 07:44:29;;;;;;;5.90;3.10;;;;;;;;;;4996952;28;20034;-76
2021/12/11 07:46:56;;;;;;;6.68;2.63;;;;;;;;;;4996910;28;20033;-75
2021/12/11 07:49:22;;;;;;;7.22;2.67;;;;;;;;;;4997074;28;20026;-75
2021/12/11 07:51:50;;;;;;;3.97;2.40;;;;;;;;;;5008805;28;20034;-74
2021/12/11 07:54:16;;;;;;;4.50;2.60;;;;;;;;;;5000812;28;20381;-74
2021/12/11 07:56:43;;;;;;;4.63;2.60;;;;;;;;;;5007398;28;20093;-75
2021/12/11 07:59:10;;;;;;;5.57;2.28;;;;;;;;;;4997600;28;20106;-75
2021/12/11 08:01:37;;;;;;;3.25;2.65;;;;;;;;;;5013782;28;20524;-75
2021/12/11 08:04:05;;;;;;;3.80;2.50;;;;;;;;;;5006564;28;20022;-76
2021/12/11 08:06:31;;;;;;;3.53;2.47;;;;;;;;;;4996723;28;20073;-75
2021/12/11 08:08:58;;;;;;;5.95;2.75;;;;;;;;;;5002275;28;20105;-75
2021/12/11 08:11:28;;;;;;;5.20;2.95;;;;;;;;;;4995700;28;20041;-74
2021/12/11 08:13:55;;;;;;;6.25;2.67;;;;;;;;;;4977450;28;20073;-76
2021/12/11 08:16:24;;;;;;;7.95;2.80;;;;;;;;;;4992051;28;20643;-75
2021/12/11 08:18:53;;;;;;;10.27;3.72;;;;;;;;;;4996531;28;20090;-75
2021/12/11 08:21:19;;;;;;;8.45;2.50;;;;;;;;;;5001199;28;20026;-75
2021/12/11 08:23:48;;;;;;;5.97;2.70;;;;;;;;;;5000823;28;20033;-75
2021/12/11 08:26:16;;;;;;;5.22;2.60;;;;;;;;;;4997743;28;20109;-76
2021/12/11 08:28:42;;;;;;;7.72;2.85;;;;;;;;;;4991321;28;20136;-75
2021/12/11 08:31:09;;;;;;;4.38;2.80;;;;;;;;;;5014681;28;20457;-75
2021/12/11 08:33:35;;;;;;;4.65;2.70;;;;;;;;;;5009558;28;20512;-76
2021/12/11 08:36:01;;;;;;;3.72;2.47;;;;;;;;;;4998786;28;20026;-76
2021/12/11 08:38:28;;;;;;;5.75;3.03;;;;;;;;;;4999587;28;20030;-75
2021/12/11 08:40:55;;;;;;;7.25;2.72;;;;;;;;;;5002869;28;20392;-75
2021/12/11 08:43:22;;;;;;;6.43;2.70;;;;;;;;;;5012902;28;20481;-75
2021/12/11 08:46:10;;;;;;;5.35;2.83;;;;;;;;;;5010544;28;20073;-74
2021/12/11 08:48:41;;;;;;;6.72;2.90;;;;;;;;;;5013676;28;20049;-74
2021/12/11 08:51:10;;;;;;;6.00;3.03;;;;;;;;;;5007862;28;20081;-75
2021/12/11 08:53:37;;;;;;;3.42;2.50;;;;;;;;;;5001704;28;20038;-74
2021/12/11 08:56:05;;;;;;;8.20;3.85;;;;;;;;;;5006673;28;20037;-74
2021/12/11 08:58:31;;;;;;;5.28;2.55;;;;;;;;;;4996506;28;20085;-74
2021/12/11 09:01:00;;;;;;;6.13;2.63;;;;;;;;;;5009588;28;20442;-74
2021/12/11 09:03:46;;;;;;;4.30;2.70;;;;;;;;;;5010834;28;20053;-74
2021/12/11 09:06:15;;;;;;;3.60;2.53;;;;;;;;;;4992181;28;20104;-76
2021/12/11 09:08:55;;;;;;;5.18;2.60;;;;;;;;;;5001719;28;20026;-75
2021/12/11 09:11:26;;;;;;;3.15;2.30;;;;;;;;;;5004014;28;20034;-73
2021/12/11 09:14:04;;;;;;;4.72;2.72;;;;;;;;;;5001282;28;20481;-76
2021/12/11 09:16:33;;;;;;;3.83;2.67;;;;;;;;;;5009343;28;20029;-74
2021/12/11 09:19:01;;;;;;;5.15;2.58;;;;;;;;;;5001909;28;20026;-73
2021/12/11 09:21:37;;;;;;;6.07;2.78;;;;;;;;;;4996056;28;20388;-75
2021/12/11 09:24:06;;;;;;;3.15;2.50;;;;;;;;;;4995929;28;20030;-74
2021/12/11 09:26:35;;;;;;;3.67;2.90;;;;;;;;;;5001286;28;20022;-75
2021/12/11 09:29:06;;;;;;;3.65;2.53;;;;;;;;;;5010800;28;20064;-73
2021/12/11 09:31:44;;;;;;;6.65;2.60;;;;;;;;;;5007894;28;20072;-74
2021/12/11 09:34:17;;;;;;;2.78;2.00;;;;;;;;;;5008312;28;20065;-74
2021/12/11 09:36:47;;;;;;;2.53;2.25;;;;;;;;;;5004955;28;20109;-74
2021/12/11 09:39:17;;;;;;;4.28;2.47;;;;;;;;;;5009730;28;20026;-74
2021/12/11 09:41:43;;;;;;;4.05;3.13;;;;;;;;;;4996028;28;20033;-72
2021/12/11 09:44:35;;;;;;;5.95;2.30;;;;;;;;;;5004015;28;20022;-75
2021/12/11 09:47:10;;;;;;;3.75;1.88;;;;;;;;;;5004328;28;20374;-76
2021/12/11 09:49:40;;;;;;;3.53;1.80;;;;;;;;;;4996586;28;20030;-75
2021/12/11 09:52:18;;;;;;;2.20;2.00;;;;;;;;;;5006758;28;20038;-76
2021/12/11 09:54:48;;;;;;;2.28;1.65;;;;;;;;;;5007890;28;20025;-75
2021/12/11 09:57:15;;;;;;;2.70;1.80;;;;;;;;;;5005861;28;20091;-76
2021/12/11 09:59:43;;;;;;;3.15;1.85;;;;;;;;;;4985002;28;20549;-74
2021/12/11 10:02:11;;;;;;;1.95;1.70;;;;;;;;;;5013996;28;20101;-74
2021/12/11 10:04:39;;;;;;;1.80;1.70;;;;;;;;;;5005514;28;20022;-74
2021/12/11 10:09:49;;;;;;;1.75;1.50;;;;;;;;;;4999358;28;20026;-76
2021/12/11 10:12:17;;;;;;;1.63;1.50;;;;;;;;;;5003426;28;20026;-75
2021/12/11 10:14:49;;;;;;;1.77;1.42;;;;;;;;;;5006669;28;20484;-75
2021/12/11 10:17:17;;;;;;;1.90;1.60;;;;;;;;;;4996499;28;20109;-73
2021/12/11 10:19:44;;;;;;;1.40;1.30;;;;;;;;;;5010710;28;20486;-75
2021/12/11 10:22:33;;;;;;;1.90;1.40;;;;;;;;;;5002370;28;20041;-76
2021/12/11 10:25:00;;;;;;;1.70;1.60;;;;;;;;;;4993700;28;20034;-75
2021/12/11 10:27:27;;;;;;;1.83;1.65;;;;;;;;;;5001487;28;20018;-76
2021/12/11 10:29:54;;;;;;;2.00;1.80;;;;;;;;;;5003008;28;20103;-76
2021/12/11 10:32:22;;;;;;;2.40;1.75;;;;;;;;;;5006567;28;20430;-76
2021/12/11 10:34:50;;;;;;;1.50;1.40;;;;;;;;;;4999919;28;20108;-76
2021/12/11 10:37:19;;;;;;;1.50;1.40;;;;;;;;;;5005155;28;20366;-75
2021/12/11 10:39:48;;;;;;;1.63;1.52;;;;;;;;;;4998327;28;20022;-76
2021/12/11 10:42:14;;;;;;;1.45;1.35;;;;;;;;;;5008509;28;20473;-74
2021/12/11 10:44:43;;;;;;;2.85;1.55;;;;;;;;;;5001087;28;20030;-76
2021/12/11 10:47:20;;;;;;;3.35;1.40;;;;;;;;;;5009744;28;20106;-75
2021/12/11 10:49:47;;;;;;;1.40;1.30;;;;;;;;;;4984233;28;20026;-75
2021/12/11 10:52:19;;;;;;;1.40;1.30;;;;;;;;;;5012688;28;20042;-76
2021/12/11 10:54:46;;;;;;;3.08;1.75;;;;;;;;;;5013183;28;20076;-75
2021/12/11 10:57:12;;;;;;;2.30;1.63;;;;;;;;;;5002770;28;20027;-75
2021/12/11 10:59:41;;;;;;;2.20;1.73;;;;;;;;;;5018217;28;20022;-72
2021/12/11 11:02:13;;;;;;;1.63;1.52;;;;;;;;;;5010721;28;20072;-73
2021/12/11 11:04:41;;;;;;;1.58;1.48;;;;;;;;;;5010249;28;20033;-74
2021/12/11 11:07:08;;;;;;;1.90;1.70;;;;;;;;;;5016965;28;20033;-75
2021/12/11 11:09:34;;;;;;;3.70;1.70;;;;;;;;;;5016525;28;20025;-74
2021/12/11 11:12:02;;;;;;;1.73;1.63;;;;;;;;;;5017551;28;20480;-74
2021/12/11 11:14:30;;;;;;;2.53;1.60;;;;;;;;;;5018322;28;20026;-73
2021/12/11 11:16:57;;;;;;;3.45;1.85;;;;;;;;;;5004649;28;20105;-76
2021/12/11 11:19:25;;;;;;;2.20;1.85;;;;;;;;;;4999837;28;20073;-75
2021/12/11 11:21:56;;;;;;;2.00;1.83;;;;;;;;;;5012721;28;20109;-75
2021/12/11 11:24:23;;;;;;;3.95;2.03;;;;;;;;;;5009547;28;20113;-75
2021/12/11 11:26:50;;;;;;;2.50;1.80;;;;;;;;;;5010287;28;20037;-73
2021/12/11 11:29:19;;;;;;;3.25;2.30;;;;;;;;;;5014051;28;20034;-76
2021/12/11 11:31:46;;;;;;;2.05;1.70;;;;;;;;;;5001581;28;20018;-76
2021/12/11 11:34:13;;;;;;;2.70;2.00;;;;;;;;;;5013749;28;20133;-74
2021/12/11 11:36:39;;;;;;;2.40;1.80;;;;;;;;;;5016736;28;20038;-76
2021/12/11 11:39:09;;;;;;;1.90;1.70;;;;;;;;;;5000349;28;20456;-75
2021/12/11 11:41:40;;;;;;;2.35;1.80;;;;;;;;;;5014895;28;20117;-75
2021/12/11 11:44:07;;;;;;;3.72;1.80;;;;;;;;;;5016483;28;20028;-76
2021/12/11 11:46:35;;;;;;;2.20;2.00;;;;;;;;;;5006010;28;20031;-75
2021/12/11 11:49:02;;;;;;;4.22;1.85;;;;;;;;;;5009773;28;20389;-76
2021/12/11 11:51:30;;;;;;;3.88;1.98;;;;;;;;;;4999468;28;20065;-74
2021/12/11 11:53:56;;;;;;;2.20;2.00;;;;;;;;;;5002033;28;20030;-75
2021/12/11 11:56:25;;;;;;;5.75;2.20;;;;;;;;;;5001631;28;20034;-73
2021/12/11 11:58:52;;;;;;;2.03;1.83;;;;;;;;;;5014798;28;20061;-72
2021/12/11 12:01:23;;;;;;;2.70;2.20;;;;;;;;;;5021593;28;20480;-76
2021/12/11 12:03:50;;;;;;;4.15;2.58;;;;;;;;;;5018756;28;20421;-75
2021/12/11 12:06:22;;;;;;;2.60;1.98;;;;;;;;;;5011908;28;20022;-75
2021/12/11 12:08:49;;;;;;;2.35;2.03;;;;;;;;;;5021581;28;20022;-74
2021/12/11 12:11:15;;;;;;;2.67;2.13;;;;;;;;;;5022287;28;20038;-74
2021/12/11 12:13:41;;;;;;;3.53;2.20;;;;;;;;;;5018019;28;20031;-73
2021/12/11 12:16:09;;;;;;;3.25;2.30;;;;;;;;;;5002561;28;20109;-76
2021/12/11 12:18:36;;;;;;;3.85;2.70;;;;;;;;;;5014298;28;20033;-76
2021/12/11 12:21:04;;;;;;;4.20;2.88;;;;;;;;;;5021342;28;20052;-74
2021/12/11 12:23:31;;;;;;;4.75;2.70;;;;;;;;;;5017281;28;20100;-74
2021/12/11 12:26:01;;;;;;;4.75;2.97;;;;;;;;;;5008652;28;20018;-74
2021/12/11 12:28:28;;;;;;;3.70;2.88;;;;;;;;;;5012673;28;20041;-76
2021/12/11 12:30:55;;;;;;;4.40;2.50;;;;;;;;;;5016199;28;20034;-73
2021/12/11 12:33:22;;;;;;;4.75;2.80;;;;;;;;;;5019287;28;20026;-73
2021/12/11 12:35:48;;;;;;;7.63;3.95;;;;;;;;;;5002830;28;20022;-73
2021/12/11 12:38:16;;;;;;;5.38;2.70;;;;;;;;;;5010773;28;20033;-75
2021/12/11 12:40:55;;;;;;;4.25;3.05;;;;;;;;;;5023642;28;20495;-73
2021/12/11 12:43:53;;;;;;;5.10;2.92;;;;;;;;;;5021376;28;20487;-75
2021/12/11 12:46:08;;;;;;;4.93;2.95;;;;;;;;;;5014967;28;20501;-75
2021/12/11 12:48:35;;;;;;;5.28;3.38;;;;;;;;;;5015082;28;20038;-74
2021/12/11 12:51:03;;;;;;;4.93;3.10;;;;;;;;;;5022489;28;20045;-73
2021/12/11 12:53:33;;;;;;;3.92;3.20;;;;;;;;;;5019753;28;20104;-74
2021/12/11 12:56:10;;;;;;;7.13;3.17;;;;;;;;;;5018709;28;20347;-74
2021/12/11 12:58:42;;;;;;;4.30;3.10;;;;;;;;;;5004939;28;20098;-73
2021/12/11 13:01:11;;;;;;;5.28;3.45;;;;;;;;;;5019263;28;20065;-72
2021/12/11 13:03:38;;;;;;;6.00;3.60;;;;;;;;;;5021680;28;20033;-76
2021/12/11 13:06:09;;;;;;;3.42;3.10;;;;;;;;;;5023265;28;20380;-73
2021/12/11 13:08:47;;;;;;;5.70;3.40;;;;;;;;;;5021137;28;20022;-73
2021/12/11 13:11:33;;;;;;;4.20;3.17;;;;;;;;;;5021335;28;20037;-73
2021/12/11 13:14:00;;;;;;;5.13;3.50;;;;;;;;;;4989037;28;20030;-72
2021/12/11 13:16:29;;;;;;;3.85;2.90;;;;;;;;;;5010645;28;20026;-75
2021/12/11 13:18:57;;;;;;;5.32;3.75;;;;;;;;;;5006738;28;20030;-75
2021/12/11 13:21:51;;;;;;;6.55;3.72;;;;;;;;;;5017761;28;20046;-74
2021/12/11 13:24:17;;;;;;;4.38;3.45;;;;;;;;;;4999479;28;20496;-73
2021/12/11 13:26:46;;;;;;;5.00;3.42;;;;;;;;;;5009394;28;20065;-75
2021/12/11 13:29:15;;;;;;;4.40;3.30;;;;;;;;;;5002890;28;20074;-76
2021/12/11 13:31:44;;;;;;;5.13;3.53;;;;;;;;;;4988834;28;20034;-73
2021/12/11 13:34:10;;;;;;;6.57;3.38;;;;;;;;;;5011280;28;20027;-74
2021/12/11 13:36:36;;;;;;;5.10;3.50;;;;;;;;;;5012327;28;20030;-75
2021/12/11 13:39:07;;;;;;;3.78;2.90;;;;;;;;;;5021155;28;20408;-78
2021/12/11 13:41:36;;;;;;;4.25;3.17;;;;;;;;;;5017843;28;20121;-73
2021/12/11 13:44:02;;;;;;;8.00;3.80;;;;;;;;;;5008677;28;20057;-75
2021/12/11 13:46:29;;;;;;;6.45;3.72;;;;;;;;;;5009680;28;20077;-74
2021/12/11 13:48:56;;;;;;;4.80;3.45;;;;;;;;;;5013435;28;20022;-74
2021/12/11 13:51:23;;;;;;;4.85;3.13;;;;;;;;;;5002732;28;20029;-77
2021/12/11 13:53:51;;;;;;;7.05;3.22;;;;;;;;;;5005825;28;20589;-73
2021/12/11 13:56:22;;;;;;;4.47;3.42;;;;;;;;;;5019774;28;20404;-74
2021/12/11 13:58:48;;;;;;;7.75;2.92;;;;;;;;;;5007604;28;20105;-75
2021/12/11 14:01:16;;;;;;;3.63;2.80;;;;;;;;;;5002410;28;20030;-74
2021/12/11 14:03:42;;;;;;;3.72;3.08;;;;;;;;;;5020686;28;20465;-73
2021/12/11 14:06:12;;;;;;;4.82;2.90;;;;;;;;;;5019803;28;20026;-73
2021/12/11 14:08:39;;;;;;;7.07;3.10;;;;;;;;;;5009128;28;20026;-76
2021/12/11 14:11:07;;;;;;;4.05;2.88;;;;;;;;;;4999383;28;20031;-73
2021/12/11 14:13:33;;;;;;;3.13;2.80;;;;;;;;;;5000661;28;20389;-74
2021/12/11 14:16:00;;;;;;;4.28;2.60;;;;;;;;;;4999018;28;20102;-73
2021/12/11 14:18:26;;;;;;;5.32;3.22;;;;;;;;;;4999884;28;20058;-76
2021/12/11 14:20:54;;;;;;;3.90;3.28;;;;;;;;;;5014535;28;20089;-73
2021/12/11 14:23:22;;;;;;;6.28;4.68;;;;;;;;;;5003294;28;20023;-75
2021/12/11 14:25:49;;;;;;;4.97;3.65;;;;;;;;;;5005247;28;20026;-75
2021/12/11 14:28:17;;;;;;;9.98;7.15;;;;;;;;;;5004850;28;20065;-75
2021/12/11 14:30:47;;;;;;;11.98;7.30;;;;;;;;;;5011896;28;20113;-74
2021/12/11 14:33:13;;;;;;;24.60;13.13;;;;;;;;;;5002547;28;20389;-76
2021/12/11 14:35:39;;;;;;;36.33;16.10;;;;;;;;;;5005603;28;20026;-74
2021/12/11 14:38:07;;;;;;;89.60;38.88;;;;;;;;;;5017285;28;20025;-76
2021/12/11 14:40:35;;;;;;;35.17;16.95;;;;;;;;;;5010288;28;20085;-75
2021/12/11 14:43:01;;;;;;;79.78;37.35;;;;;;;;;;5001811;28;20030;-76
2021/12/11 14:45:29;;;;;;;38.33;17.95;;;;;;;;;;5015744;28;20033;-74
2021/12/11 14:47:56;;;;;;;42.33;19.05;;;;;;;;;;5006592;28;20065;-74
2021/12/11 14:50:29;;;;;;;73.28;36.28;;;;;;;;;;5019360;28;20056;-76
2021/12/11 14:52:56;;;;;;;49.15;23.92;;;;;;;;;;5014217;28;20105;-74
2021/12/11 14:55:25;;;;;;;36.00;17.55;;;;;;;;;;5015840;28;20041;-75
2021/12/11 14:57:52;;;;;;;11.82;6.70;;;;;;;;;;5001092;28;20520;-76
2021/12/11 15:00:20;;;;;;;6.72;4.60;;;;;;;;;;5004352;28;20045;-77
2021/12/11 15:02:47;;;;;;;14.55;8.93;;;;;;;;;;5009065;28;20026;-78